< < Back
Terminal Aerodrome Forecast


Current Version              Previous Versions:   1  2  3  4  5  6  7  8  9  

Terminal Aerodrome Forecast

690
FTUS42 KCAE 181300 AAA
TAFCAE
TAF AMD
KCAE 181351Z 1814/1912 04010G16KT P6SM SCT030 OVC100
      TEMPO 1814/1818 BKN028
     FM181800 04012G18KT 5SM -RA OVC020
     FM190200 04014G20KT 3SM RA OVC009=



Latest METAR

216
SAUS80 KWBC 190200 CCA
MTRCAE
METAR KCAE 190156Z 03009KT 2 1/2SM RA BR FEW011 BKN016 OVC022 12/11
A3015 RMK AO2 SLP207 P0022 T01170106


USA.gov is the U.S. government's official web portal to all federal, state and local government web resources and services.